createdAt,value
2018-05-21T00:00:26.265Z,14.90
2018-05-21T00:02:56.731Z,14.90
2018-05-21T00:05:26.464Z,14.90
2018-05-21T00:07:59.400Z,14.90
2018-05-21T00:10:28.034Z,14.90
2018-05-21T00:13:01.737Z,14.80
2018-05-21T00:15:30.472Z,14.80
2018-05-21T00:18:03.482Z,14.70
2018-05-21T00:20:32.799Z,14.80
2018-05-21T00:23:06.023Z,14.80
2018-05-21T00:30:48.150Z,14.70
2018-05-21T00:33:17.605Z,14.80
2018-05-21T00:35:47.826Z,14.80
2018-05-21T00:40:48.923Z,14.70
2018-05-21T00:43:17.624Z,16.00
2018-05-21T00:45:48.077Z,14.80
2018-05-21T00:48:19.249Z,14.80
2018-05-21T00:50:49.089Z,14.80
2018-05-21T00:53:21.136Z,14.80
2018-05-21T00:55:49.895Z,14.80
2018-05-21T00:58:23.258Z,14.80
2018-05-21T01:00:52.723Z,14.80
2018-05-21T01:03:33.994Z,14.80
2018-05-21T01:08:33.337Z,14.70
2018-05-21T01:11:02.753Z,14.60
2018-05-21T01:13:31.694Z,13.80
2018-05-21T01:16:01.092Z,14.60
2018-05-21T01:23:34.803Z,15.00
2018-05-21T01:26:04.254Z,14.70
2018-05-21T01:28:37.251Z,14.60
2018-05-21T01:31:05.895Z,14.60
2018-05-21T01:33:39.097Z,14.60
2018-05-21T01:36:08.731Z,14.60
2018-05-21T01:38:42.450Z,14.60
2018-05-21T01:41:11.097Z,14.60
2018-05-21T01:43:44.339Z,14.80
2018-05-21T01:46:13.943Z,14.60
2018-05-21T01:48:47.300Z,14.70
2018-05-21T01:53:49.783Z,14.60
2018-05-21T01:56:19.931Z,14.70
2018-05-21T01:58:51.764Z,14.60
2018-05-21T02:01:20.796Z,14.60
2018-05-21T02:03:54.587Z,14.60
2018-05-21T02:06:23.613Z,14.50
2018-05-21T02:09:05.971Z,14.40
2018-05-21T02:11:34.954Z,14.30
2018-05-21T02:14:04.819Z,14.30
2018-05-21T02:16:33.501Z,14.30
2018-05-21T02:19:02.937Z,14.30
2018-05-21T02:21:31.571Z,14.40
2018-05-21T02:26:34.541Z,14.40
2018-05-21T02:29:17.093Z,14.50
2018-05-21T02:31:47.242Z,14.30
2018-05-21T02:34:16.320Z,14.30
2018-05-21T02:36:46.089Z,14.30
2018-05-21T02:39:15.011Z,14.20
2018-05-21T02:44:16.285Z,14.20
2018-05-21T02:46:45.245Z,14.20
2018-05-21T02:49:17.628Z,14.20
2018-05-21T02:51:46.271Z,14.10
2018-05-21T02:54:29.074Z,14.10
2018-05-21T02:56:57.761Z,14.10
2018-05-21T03:04:26.571Z,14.20
2018-05-21T03:09:26.160Z,14.20
2018-05-21T03:11:54.856Z,13.90
2018-05-21T03:14:27.735Z,14.00
2018-05-21T03:16:57.531Z,14.00
2018-05-21T03:19:30.640Z,13.90
2018-05-21T03:24:32.780Z,13.90
2018-05-21T03:27:02.552Z,13.90
2018-05-21T03:29:44.005Z,13.90
2018-05-21T03:32:12.666Z,13.90
2018-05-21T03:34:42.876Z,14.00
2018-05-21T03:39:42.607Z,14.00
2018-05-21T03:47:11.275Z,14.00
2018-05-21T03:49:46.351Z,14.20
2018-05-21T03:54:47.900Z,14.10
2018-05-21T03:57:17.288Z,14.20
2018-05-21T04:00:01.204Z,14.30
2018-05-21T04:05:07.147Z,14.40
2018-05-21T04:07:37.488Z,14.40
2018-05-21T04:10:06.147Z,14.40
2018-05-21T04:12:36.089Z,14.40
2018-05-21T04:15:06.598Z,14.30
2018-05-21T04:17:36.772Z,14.30
2018-05-21T04:20:06.220Z,14.20
2018-05-21T04:22:36.332Z,14.20
2018-05-21T04:25:06.099Z,14.10
2018-05-21T04:27:35.004Z,14.10
2018-05-21T04:30:05.853Z,14.10
2018-05-21T04:32:34.896Z,13.70
2018-05-21T04:35:11.504Z,14.20
2018-05-21T04:37:40.181Z,14.20
2018-05-21T04:40:11.822Z,15.30
2018-05-21T04:42:41.263Z,14.10
2018-05-21T04:45:13.405Z,14.20
2018-05-21T04:47:42.372Z,14.10
2018-05-21T04:50:23.895Z,14.10
2018-05-21T04:52:52.839Z,14.10
2018-05-21T04:55:21.524Z,14.10
2018-05-21T04:57:51.327Z,14.10
2018-05-21T05:00:21.813Z,14.30
2018-05-21T05:05:21.988Z,14.30
2018-05-21T05:07:51.404Z,14.30
2018-05-21T05:10:32.442Z,14.40
2018-05-21T05:13:01.812Z,14.40
2018-05-21T05:15:31.252Z,14.50
2018-05-21T05:18:01.441Z,14.60
2018-05-21T05:20:30.127Z,14.60
2018-05-21T05:22:58.781Z,14.60
2018-05-21T05:25:31.551Z,14.90
2018-05-21T05:28:01.327Z,15.20
2018-05-21T05:30:33.584Z,15.40
2018-05-21T05:33:02.557Z,15.70
2018-05-21T05:35:35.204Z,16.30
2018-05-21T05:38:04.275Z,16.40
2018-05-21T05:40:37.696Z,16.50
2018-05-21T05:43:06.741Z,16.80
2018-05-21T05:45:39.829Z,17.10
2018-05-21T05:48:08.883Z,17.30
2018-05-21T05:50:41.688Z,17.50
2018-05-21T05:53:11.467Z,17.80
2018-05-21T06:00:56.029Z,17.80
2018-05-21T06:03:25.559Z,17.30
2018-05-21T06:05:54.649Z,17.20
2018-05-21T06:08:24.082Z,17.10
2018-05-21T06:10:53.517Z,17.00
2018-05-21T06:13:22.173Z,17.40
2018-05-21T06:16:03.728Z,17.30
2018-05-21T06:18:32.624Z,18.10
2018-05-21T06:21:02.800Z,18.70
2018-05-21T06:23:31.487Z,19.20
2018-05-21T06:26:00.500Z,19.90
2018-05-21T06:28:30.000Z,20.00
2018-05-21T06:33:31.976Z,19.70
2018-05-21T06:38:34.687Z,19.60
2018-05-21T06:41:09.409Z,19.50
2018-05-21T06:43:38.021Z,19.30
2018-05-21T06:46:14.310Z,19.20
2018-05-21T06:48:45.003Z,19.10
2018-05-21T06:51:14.075Z,18.60
2018-05-21T06:53:42.796Z,18.70
2018-05-21T06:56:16.261Z,19.40
2018-05-21T06:58:46.468Z,20.20
2018-05-21T07:03:46.751Z,25.20
2018-05-21T07:06:19.834Z,26.40
2018-05-21T07:08:50.021Z,25.50
2018-05-21T07:13:51.355Z,24.30
2018-05-21T07:16:25.519Z,25.20
2018-05-21T07:18:55.228Z,26.20
2018-05-21T07:21:27.531Z,25.30
2018-05-21T07:23:56.978Z,26.20
2018-05-21T07:26:29.756Z,27.10
2018-05-21T07:28:58.455Z,27.60
2018-05-21T07:31:31.203Z,27.70
2018-05-21T07:33:59.838Z,27.30
2018-05-21T07:36:32.732Z,27.80
2018-05-21T07:39:01.671Z,28.40
2018-05-21T07:41:34.935Z,28.40
2018-05-21T07:44:03.617Z,28.50
2018-05-21T07:46:36.843Z,27.40
2018-05-21T07:49:06.356Z,28.00
2018-05-21T08:04:44.224Z,27.40
2018-05-21T08:07:12.920Z,27.60
2018-05-21T08:09:47.770Z,27.40
2018-05-21T08:12:16.847Z,27.00
2018-05-21T08:14:54.569Z,27.90
2018-05-21T08:17:24.235Z,29.30
2018-05-21T08:19:54.634Z,27.60
2018-05-21T08:22:24.757Z,28.00
2018-05-21T08:25:06.337Z,27.90
2018-05-21T08:27:36.844Z,27.80
2018-05-21T08:30:06.036Z,26.50
2018-05-21T08:32:35.675Z,26.60
2018-05-21T08:35:05.032Z,27.20
2018-05-21T08:37:35.006Z,27.90
2018-05-21T08:40:05.553Z,28.70
2018-05-21T08:42:35.044Z,28.30
2018-05-21T08:45:07.904Z,28.00
2018-05-21T08:47:37.376Z,27.90
2018-05-21T08:50:11.623Z,28.20
2018-05-21T08:52:40.301Z,29.10
2018-05-21T08:55:21.377Z,30.00
2018-05-21T08:57:51.816Z,29.00
2018-05-21T09:02:51.664Z,28.30
2018-05-21T09:05:20.650Z,27.70
2018-05-21T09:07:50.097Z,27.90
2018-05-21T09:10:19.854Z,28.30
2018-05-21T09:12:49.811Z,29.10
2018-05-21T09:15:22.845Z,29.00
2018-05-21T09:17:52.296Z,28.90
2018-05-21T09:20:23.318Z,27.00
2018-05-21T09:22:52.040Z,27.60
2018-05-21T09:25:34.171Z,28.80
2018-05-21T09:28:03.692Z,28.00
2018-05-21T09:30:33.483Z,27.70
2018-05-21T09:35:31.763Z,25.20
2018-05-21T09:38:01.851Z,24.60
2018-05-21T09:40:34.290Z,23.90
2018-05-21T09:45:35.213Z,24.00
2018-05-21T09:48:05.215Z,23.60
2018-05-21T09:50:37.144Z,23.60
2018-05-21T09:55:40.071Z,23.20
2018-05-21T09:58:09.899Z,23.40
2018-05-21T10:00:42.677Z,23.50
2018-05-21T10:05:45.366Z,23.20
2018-05-21T10:10:47.991Z,23.00
2018-05-21T10:13:17.001Z,23.00
2018-05-21T10:15:49.795Z,23.10
2018-05-21T10:18:19.039Z,23.70
2018-05-21T10:20:51.981Z,24.00
2018-05-21T10:23:21.735Z,23.80
2018-05-21T10:26:04.010Z,23.60
2018-05-21T10:28:33.735Z,23.60
2018-05-21T10:31:02.456Z,23.00
2018-05-21T10:33:31.596Z,22.90
2018-05-21T10:36:02.057Z,23.00
2018-05-21T10:41:04.885Z,23.50
2018-05-21T10:43:34.995Z,23.30
2018-05-21T11:06:46.487Z,23.70
2018-05-21T11:09:19.367Z,23.90
2018-05-21T11:11:49.905Z,23.70
2018-05-21T11:14:20.335Z,23.80
2018-05-21T11:16:49.416Z,23.80
2018-05-21T11:19:23.148Z,23.70
2018-05-21T11:21:52.565Z,23.50
2018-05-21T11:24:24.064Z,23.70
2018-05-21T11:26:52.696Z,23.60
2018-05-21T11:29:25.922Z,23.50
2018-05-21T11:31:55.697Z,23.30
2018-05-21T11:34:29.472Z,23.40
2018-05-21T11:36:58.716Z,23.70
2018-05-21T11:39:30.822Z,23.80
2018-05-21T11:41:59.955Z,23.90
2018-05-21T11:44:41.825Z,23.90
2018-05-21T11:49:41.171Z,24.10
2018-05-21T11:52:13.195Z,24.00
2018-05-21T11:54:42.297Z,24.20
2018-05-21T11:57:11.736Z,24.50
2018-05-21T11:59:41.568Z,24.80
2018-05-21T12:02:11.673Z,24.80
2018-05-21T12:07:11.623Z,24.40
2018-05-21T12:09:44.900Z,24.70
2018-05-21T12:14:49.936Z,25.20
2018-05-21T12:17:18.977Z,24.10
2018-05-21T12:19:51.557Z,24.60
2018-05-21T12:22:20.268Z,24.80
2018-05-21T12:24:54.317Z,25.00
2018-05-21T12:27:23.767Z,24.80
2018-05-21T12:30:05.697Z,24.50
2018-05-21T12:32:35.411Z,24.70
2018-05-21T12:35:04.442Z,24.60
2018-05-21T12:37:33.100Z,24.90
2018-05-21T12:40:03.213Z,24.80
2018-05-21T12:42:33.085Z,24.90
2018-05-21T12:45:04.337Z,25.00
2018-05-21T12:47:34.172Z,24.80
2018-05-21T12:50:06.439Z,24.80
2018-05-21T12:52:36.690Z,24.70
2018-05-21T12:55:19.076Z,24.70
2018-05-21T12:57:47.855Z,24.90
2018-05-21T13:00:16.919Z,25.00
2018-05-21T13:02:47.436Z,25.30
2018-05-21T13:05:16.555Z,25.30
2018-05-21T13:07:45.246Z,25.40
2018-05-21T13:10:16.416Z,25.40
2018-05-21T13:15:27.992Z,25.00
2018-05-21T13:17:57.333Z,25.80
2018-05-21T13:20:26.393Z,25.50
2018-05-21T13:25:27.476Z,25.60
2018-05-21T13:27:57.656Z,25.50
2018-05-21T13:32:57.063Z,25.30
2018-05-21T13:35:27.683Z,25.40
2018-05-21T13:37:56.718Z,25.00
2018-05-21T13:40:30.400Z,25.10
2018-05-21T13:42:59.580Z,25.40
2018-05-21T13:45:32.196Z,25.50
2018-05-21T13:50:34.648Z,25.70
2018-05-21T13:53:03.411Z,25.40
2018-05-21T13:55:35.984Z,25.50
2018-05-21T13:58:06.720Z,25.30
2018-05-21T14:00:39.863Z,25.00
2018-05-21T14:03:09.637Z,25.20
2018-05-21T14:05:43.092Z,25.30
2018-05-21T14:08:12.089Z,25.40
2018-05-21T14:10:44.140Z,25.50
2018-05-21T14:13:13.663Z,25.50
2018-05-21T14:15:47.200Z,25.80
2018-05-21T14:18:17.015Z,25.80
2018-05-21T14:20:49.080Z,26.00
2018-05-21T14:23:17.810Z,25.40
2018-05-21T14:25:51.368Z,25.20
2018-05-21T14:28:20.076Z,25.50
2018-05-21T14:30:53.329Z,25.60
2018-05-21T14:33:23.861Z,25.30
2018-05-21T14:35:56.573Z,24.60
2018-05-21T14:41:07.212Z,25.60
2018-05-21T14:43:37.009Z,25.80
2018-05-21T14:58:36.708Z,25.60
2018-05-21T15:01:18.348Z,25.50
2018-05-21T15:03:48.264Z,25.50
2018-05-21T15:06:17.668Z,25.40
2018-05-21T15:08:46.717Z,25.30
2018-05-21T15:16:16.182Z,24.60
2018-05-21T15:21:27.625Z,24.70
2018-05-21T15:23:56.756Z,24.90
2018-05-21T15:26:25.727Z,25.00
2018-05-21T15:28:54.439Z,25.10
2018-05-21T15:31:24.151Z,25.10
2018-05-21T15:33:53.778Z,25.10
2018-05-21T15:36:26.192Z,25.20
2018-05-21T15:38:55.393Z,25.00
2018-05-21T15:41:27.708Z,25.40
2018-05-21T15:43:58.072Z,25.00
2018-05-21T15:46:30.839Z,24.90
2018-05-21T15:48:59.605Z,25.60
2018-05-21T15:51:32.496Z,24.60
2018-05-21T15:54:03.902Z,24.50
2018-05-21T15:56:34.931Z,24.40
2018-05-21T15:59:03.771Z,24.60
2018-05-21T16:01:36.828Z,24.70
2018-05-21T16:06:39.013Z,25.00
2018-05-21T16:09:10.960Z,25.10
2018-05-21T16:11:43.681Z,25.10
2018-05-21T16:14:13.305Z,25.10
2018-05-21T16:16:44.094Z,24.90
2018-05-21T16:19:13.846Z,24.70
2018-05-21T16:21:48.717Z,24.70
2018-05-21T16:24:17.706Z,24.70
2018-05-21T16:29:20.496Z,24.60
2018-05-21T16:32:02.018Z,24.30
2018-05-21T16:34:32.505Z,24.30
2018-05-21T16:37:02.635Z,24.20
2018-05-21T16:39:32.425Z,24.20
2018-05-21T16:42:02.249Z,24.30
2018-05-21T16:47:01.537Z,24.40
2018-05-21T16:49:30.502Z,24.40
2018-05-21T16:52:04.229Z,24.40
2018-05-21T16:54:35.760Z,24.50
2018-05-21T16:57:06.612Z,24.60
2018-05-21T17:02:17.463Z,24.90
2018-05-21T17:07:17.244Z,25.00
2018-05-21T17:09:46.785Z,24.80
2018-05-21T17:12:15.439Z,24.70
2018-05-21T17:14:45.503Z,24.80
2018-05-21T17:17:17.692Z,24.60
2018-05-21T17:19:46.837Z,24.40
2018-05-21T17:22:19.364Z,24.10
2018-05-21T17:27:22.156Z,24.00
2018-05-21T17:32:24.386Z,23.70
2018-05-21T17:34:53.437Z,23.60
2018-05-21T17:39:53.728Z,23.40
2018-05-21T17:42:35.108Z,23.20
2018-05-21T17:45:04.374Z,21.70
2018-05-21T17:47:33.605Z,22.90
2018-05-21T17:50:02.390Z,22.80
2018-05-21T17:55:01.034Z,22.80
2018-05-21T17:57:33.483Z,23.70
2018-05-21T18:00:03.126Z,22.80
2018-05-21T18:02:36.580Z,22.80
2018-05-21T18:07:39.414Z,22.70
2018-05-21T18:10:09.390Z,22.70
2018-05-21T18:12:41.857Z,22.80
2018-05-21T18:15:10.556Z,22.80
2018-05-21T18:17:43.828Z,22.70
2018-05-21T18:20:13.303Z,22.70
2018-05-21T18:22:44.809Z,22.60
2018-05-21T18:25:15.452Z,22.60
2018-05-21T18:27:48.744Z,22.50
2018-05-21T18:30:18.319Z,22.40
2018-05-21T18:33:00.000Z,22.30
2018-05-21T18:35:30.056Z,22.20
2018-05-21T18:37:58.837Z,22.10
2018-05-21T18:40:27.806Z,22.10
2018-05-21T18:42:56.889Z,22.00
2018-05-21T18:45:26.816Z,21.90
2018-05-21T18:47:57.791Z,22.50
2018-05-21T18:50:26.909Z,21.90
2018-05-21T18:53:09.260Z,21.60
2018-05-21T18:55:38.428Z,21.60
2018-05-21T18:58:08.232Z,21.50
2018-05-21T19:00:36.956Z,21.50
2018-05-21T19:03:07.501Z,21.50
2018-05-21T19:08:10.237Z,21.60
2018-05-21T19:10:39.256Z,21.40
2018-05-21T19:13:21.116Z,21.10
2018-05-21T19:15:51.857Z,20.90
2018-05-21T19:20:50.205Z,20.50
2018-05-21T19:23:19.136Z,20.40
2018-05-21T19:25:48.220Z,20.30
2018-05-21T19:30:47.181Z,20.10
2018-05-21T19:33:29.751Z,20.20
2018-05-21T19:35:59.078Z,20.10
2018-05-21T19:38:28.860Z,20.10
2018-05-21T19:40:57.913Z,20.00
2018-05-21T19:45:57.154Z,20.20
2018-05-21T19:48:27.467Z,20.30
2018-05-21T19:50:57.927Z,20.40
2018-05-21T19:53:29.024Z,20.40
2018-05-21T19:55:59.236Z,20.50
2018-05-21T19:58:31.631Z,20.50
2018-05-21T20:01:00.756Z,20.60
2018-05-21T20:03:33.817Z,20.70
2018-05-21T20:08:35.829Z,20.70
2018-05-21T20:11:04.780Z,20.60
2018-05-21T20:13:38.386Z,20.40
2018-05-21T20:16:07.108Z,19.90
2018-05-21T20:18:40.917Z,19.60
2018-05-21T20:21:09.977Z,19.30
2018-05-21T20:23:51.641Z,19.20
2018-05-21T20:26:21.136Z,19.10
2018-05-21T20:28:49.823Z,19.10
2018-05-21T20:31:18.474Z,19.00
2018-05-21T20:33:47.618Z,18.90
2018-05-21T20:36:17.097Z,18.80
2018-05-21T20:38:59.835Z,18.80
2018-05-21T20:41:29.555Z,18.60
2018-05-21T20:43:58.979Z,18.50
2018-05-21T20:48:58.388Z,18.30
2018-05-21T20:51:27.217Z,18.20
2018-05-21T20:54:00.303Z,18.10
2018-05-21T20:56:30.425Z,18.00
2018-05-21T20:59:01.714Z,18.00
2018-05-21T21:04:04.329Z,17.90
2018-05-21T21:09:15.620Z,17.80
2018-05-21T21:11:46.047Z,17.80
2018-05-21T21:16:45.397Z,17.60
2018-05-21T21:19:15.325Z,17.50
2018-05-21T21:21:44.092Z,17.40
2018-05-21T21:24:14.675Z,17.40
2018-05-21T21:26:44.855Z,17.40
2018-05-21T21:29:18.336Z,17.40
2018-05-21T21:31:47.772Z,17.50
2018-05-21T21:34:18.716Z,17.40
2018-05-21T21:36:47.518Z,17.40
2018-05-21T21:39:21.456Z,17.30
2018-05-21T21:41:50.549Z,17.30
2018-05-21T21:49:25.370Z,17.30
2018-05-21T21:51:54.873Z,17.20
2018-05-21T21:54:28.129Z,17.20
2018-05-21T21:56:57.621Z,17.20
2018-05-21T22:12:40.603Z,17.80
2018-05-21T22:15:10.300Z,17.80
2018-05-21T22:17:42.447Z,17.80
2018-05-21T22:20:15.374Z,17.60
2018-05-21T22:22:48.557Z,17.60
2018-05-21T22:25:18.361Z,17.60
2018-05-21T22:27:50.890Z,17.50
2018-05-21T22:30:20.873Z,17.40
2018-05-21T22:32:50.724Z,17.30
2018-05-21T22:35:21.646Z,17.10
2018-05-21T22:37:52.036Z,17.00
2018-05-21T22:42:51.878Z,16.40
2018-05-21T22:45:20.939Z,16.70
2018-05-21T22:47:51.811Z,16.80
2018-05-21T22:50:22.952Z,16.80
2018-05-21T22:52:54.063Z,16.80
2018-05-21T22:55:22.798Z,16.80
2018-05-21T22:58:04.320Z,16.70
2018-05-21T23:00:33.703Z,16.70
2018-05-21T23:03:02.409Z,16.50
2018-05-21T23:05:31.899Z,16.40
2018-05-21T23:08:02.852Z,16.30
2018-05-21T23:10:32.312Z,16.20
2018-05-21T23:13:06.435Z,16.10
2018-05-21T23:18:08.873Z,15.90
2018-05-21T23:20:38.072Z,15.90
2018-05-21T23:25:39.883Z,15.90
2018-05-21T23:28:12.912Z,15.60
2018-05-21T23:30:42.428Z,15.90
2018-05-21T23:35:45.601Z,15.90
2018-05-21T23:38:18.978Z,15.90
2018-05-21T23:40:47.653Z,15.80
2018-05-21T23:45:48.112Z,15.80
2018-05-21T23:48:31.097Z,15.70
2018-05-21T23:51:01.190Z,15.70
2018-05-21T23:53:29.760Z,15.80
2018-05-21T23:55:59.344Z,15.80
2018-05-21T23:58:29.111Z,15.80
